sensor_id;sensor_type;location;lat;lon;timestamp;temperature;humidity
76102;SHT30;64830;46.910;6.354;2023-08-07T00:01:45;11.47;81.56
76102;SHT30;64830;46.910;6.354;2023-08-07T00:04:10;11.46;81.48
76102;SHT30;64830;46.910;6.354;2023-08-07T00:06:36;11.47;81.49
76102;SHT30;64830;46.910;6.354;2023-08-07T00:09:01;11.45;81.63
76102;SHT30;64830;46.910;6.354;2023-08-07T00:11:27;11.51;81.20
76102;SHT30;64830;46.910;6.354;2023-08-07T00:13:53;11.47;81.40
76102;SHT30;64830;46.910;6.354;2023-08-07T00:16:19;11.45;81.41
76102;SHT30;64830;46.910;6.354;2023-08-07T00:18:44;11.46;81.48
76102;SHT30;64830;46.910;6.354;2023-08-07T00:21:10;11.47;81.72
76102;SHT30;64830;46.910;6.354;2023-08-07T00:23:35;11.49;81.78
76102;SHT30;64830;46.910;6.354;2023-08-07T00:26:00;11.52;81.68
76102;SHT30;64830;46.910;6.354;2023-08-07T00:28:26;11.58;81.76
76102;SHT30;64830;46.910;6.354;2023-08-07T00:30:51;11.59;82.00
76102;SHT30;64830;46.910;6.354;2023-08-07T00:33:17;11.61;81.97
76102;SHT30;64830;46.910;6.354;2023-08-07T00:35:42;11.67;81.86
76102;SHT30;64830;46.910;6.354;2023-08-07T00:38:08;11.63;81.79
76102;SHT30;64830;46.910;6.354;2023-08-07T00:40:38;11.63;81.89
76102;SHT30;64830;46.910;6.354;2023-08-07T00:43:04;11.61;81.94
76102;SHT30;64830;46.910;6.354;2023-08-07T00:45:32;11.59;81.81
76102;SHT30;64830;46.910;6.354;2023-08-07T00:47:59;11.59;81.83
76102;SHT30;64830;46.910;6.354;2023-08-07T00:50:25;11.58;81.80
76102;SHT30;64830;46.910;6.354;2023-08-07T00:52:50;11.52;81.65
76102;SHT30;64830;46.910;6.354;2023-08-07T00:55:16;11.55;81.86
76102;SHT30;64830;46.910;6.354;2023-08-07T00:57:41;11.55;81.96
76102;SHT30;64830;46.910;6.354;2023-08-07T01:00:07;11.52;82.13
76102;SHT30;64830;46.910;6.354;2023-08-07T01:02:33;11.52;82.18
76102;SHT30;64830;46.910;6.354;2023-08-07T01:04:59;11.55;82.20
76102;SHT30;64830;46.910;6.354;2023-08-07T01:07:24;11.52;82.29
76102;SHT30;64830;46.910;6.354;2023-08-07T01:09:50;11.55;82.47
76102;SHT30;64830;46.910;6.354;2023-08-07T01:12:19;11.58;82.50
76102;SHT30;64830;46.910;6.354;2023-08-07T01:15:05;11.59;82.44
76102;SHT30;64830;46.910;6.354;2023-08-07T01:17:36;11.62;82.38
76102;SHT30;64830;46.910;6.354;2023-08-07T01:20:02;11.62;82.46
76102;SHT30;64830;46.910;6.354;2023-08-07T01:22:28;11.63;82.64
76102;SHT30;64830;46.910;6.354;2023-08-07T01:24:53;11.63;82.69
76102;SHT30;64830;46.910;6.354;2023-08-07T01:30:09;11.67;82.38
76102;SHT30;64830;46.910;6.354;2023-08-07T01:35:33;11.66;82.37
76102;SHT30;64830;46.910;6.354;2023-08-07T01:38:01;11.65;82.50
76102;SHT30;64830;46.910;6.354;2023-08-07T01:40:28;11.63;82.48
76102;SHT30;64830;46.910;6.354;2023-08-07T01:42:53;11.63;82.48
76102;SHT30;64830;46.910;6.354;2023-08-07T01:45:24;11.65;82.67
76102;SHT30;64830;46.910;6.354;2023-08-07T01:47:49;11.62;82.42
76102;SHT30;64830;46.910;6.354;2023-08-07T01:50:15;11.66;82.42
76102;SHT30;64830;46.910;6.354;2023-08-07T01:52:40;11.69;82.38
76102;SHT30;64830;46.910;6.354;2023-08-07T01:55:05;11.70;82.34
76102;SHT30;64830;46.910;6.354;2023-08-07T01:57:31;11.69;82.22
76102;SHT30;64830;46.910;6.354;2023-08-07T01:59:57;11.69;82.49
76102;SHT30;64830;46.910;6.354;2023-08-07T02:02:22;11.69;81.61
76102;SHT30;64830;46.910;6.354;2023-08-07T02:04:48;11.67;82.00
76102;SHT30;64830;46.910;6.354;2023-08-07T02:07:14;11.67;81.40
76102;SHT30;64830;46.910;6.354;2023-08-07T02:09:39;11.61;81.34
76102;SHT30;64830;46.910;6.354;2023-08-07T02:12:05;11.56;81.12
76102;SHT30;64830;46.910;6.354;2023-08-07T02:14:31;11.52;81.29
76102;SHT30;64830;46.910;6.354;2023-08-07T02:16:56;11.47;81.30
76102;SHT30;64830;46.910;6.354;2023-08-07T02:19:21;11.46;81.32
76102;SHT30;64830;46.910;6.354;2023-08-07T02:21:47;11.45;81.77
76102;SHT30;64830;46.910;6.354;2023-08-07T02:24:12;11.45;81.91
76102;SHT30;64830;46.910;6.354;2023-08-07T02:26:39;11.46;81.91
76102;SHT30;64830;46.910;6.354;2023-08-07T02:29:04;11.46;81.67
76102;SHT30;64830;46.910;6.354;2023-08-07T02:31:31;11.47;81.92
76102;SHT30;64830;46.910;6.354;2023-08-07T02:33:57;11.51;81.80
76102;SHT30;64830;46.910;6.354;2023-08-07T02:36:22;11.51;81.77
76102;SHT30;64830;46.910;6.354;2023-08-07T02:38:48;11.51;81.65
76102;SHT30;64830;46.910;6.354;2023-08-07T02:41:13;11.51;81.58
76102;SHT30;64830;46.910;6.354;2023-08-07T02:43:38;11.49;81.45
76102;SHT30;64830;46.910;6.354;2023-08-07T02:46:04;11.49;81.40
76102;SHT30;64830;46.910;6.354;2023-08-07T02:48:29;11.45;81.26
76102;SHT30;64830;46.910;6.354;2023-08-07T02:50:55;11.39;81.78
76102;SHT30;64830;46.910;6.354;2023-08-07T02:53:20;11.40;81.82
76102;SHT30;64830;46.910;6.354;2023-08-07T02:55:45;11.42;81.80
76102;SHT30;64830;46.910;6.354;2023-08-07T02:58:11;11.42;81.80
76102;SHT30;64830;46.910;6.354;2023-08-07T03:00:36;11.42;81.99
76102;SHT30;64830;46.910;6.354;2023-08-07T03:03:02;11.42;81.59
76102;SHT30;64830;46.910;6.354;2023-08-07T03:05:27;11.42;81.67
76102;SHT30;64830;46.910;6.354;2023-08-07T03:07:52;11.40;81.78
76102;SHT30;64830;46.910;6.354;2023-08-07T03:10:18;11.39;81.56
76102;SHT30;64830;46.910;6.354;2023-08-07T03:12:44;11.36;81.83
76102;SHT30;64830;46.910;6.354;2023-08-07T03:15:09;11.39;81.70
76102;SHT30;64830;46.910;6.354;2023-08-07T03:17:35;11.40;81.91
76102;SHT30;64830;46.910;6.354;2023-08-07T03:20:01;11.39;82.01
76102;SHT30;64830;46.910;6.354;2023-08-07T03:22:26;11.38;81.95
76102;SHT30;64830;46.910;6.354;2023-08-07T03:24:51;11.36;82.09
76102;SHT30;64830;46.910;6.354;2023-08-07T03:27:17;11.35;82.10
76102;SHT30;64830;46.910;6.354;2023-08-07T03:29:42;11.35;82.11
76102;SHT30;64830;46.910;6.354;2023-08-07T03:32:08;11.34;82.12
76102;SHT30;64830;46.910;6.354;2023-08-07T03:34:34;11.32;82.14
76102;SHT30;64830;46.910;6.354;2023-08-07T03:36:59;11.31;81.97
76102;SHT30;64830;46.910;6.354;2023-08-07T03:39:25;11.29;81.79
76102;SHT30;64830;46.910;6.354;2023-08-07T03:41:50;11.24;81.91
76102;SHT30;64830;46.910;6.354;2023-08-07T03:44:16;11.21;82.21
76102;SHT30;64830;46.910;6.354;2023-08-07T03:46:41;11.19;82.15
76102;SHT30;64830;46.910;6.354;2023-08-07T03:49:07;11.18;82.20
76102;SHT30;64830;46.910;6.354;2023-08-07T03:51:32;11.15;82.27
76102;SHT30;64830;46.910;6.354;2023-08-07T03:53:58;11.14;82.26
76102;SHT30;64830;46.910;6.354;2023-08-07T03:56:23;11.11;82.30
76102;SHT30;64830;46.910;6.354;2023-08-07T03:58:49;11.11;82.33
76102;SHT30;64830;46.910;6.354;2023-08-07T04:01:15;11.11;82.18
76102;SHT30;64830;46.910;6.354;2023-08-07T04:03:41;11.12;82.23
76102;SHT30;64830;46.910;6.354;2023-08-07T04:06:06;11.11;82.12
76102;SHT30;64830;46.910;6.354;2023-08-07T04:08:32;11.08;82.19
76102;SHT30;64830;46.910;6.354;2023-08-07T04:11:01;11.07;82.10
76102;SHT30;64830;46.910;6.354;2023-08-07T04:13:27;11.07;82.31
76102;SHT30;64830;46.910;6.354;2023-08-07T04:15:53;11.07;82.44
76102;SHT30;64830;46.910;6.354;2023-08-07T04:18:18;11.04;82.39
76102;SHT30;64830;46.910;6.354;2023-08-07T04:20:55;11.04;82.46
76102;SHT30;64830;46.910;6.354;2023-08-07T04:23:21;11.03;82.72
76102;SHT30;64830;46.910;6.354;2023-08-07T04:25:47;11.04;82.72
76102;SHT30;64830;46.910;6.354;2023-08-07T04:28:13;11.03;82.85
76102;SHT30;64830;46.910;6.354;2023-08-07T04:30:38;11.03;82.87
76102;SHT30;64830;46.910;6.354;2023-08-07T04:33:04;11.03;82.93
76102;SHT30;64830;46.910;6.354;2023-08-07T04:35:30;11.01;82.91
76102;SHT30;64830;46.910;6.354;2023-08-07T04:37:56;11.04;82.90
76102;SHT30;64830;46.910;6.354;2023-08-07T04:40:21;11.00;83.04
76102;SHT30;64830;46.910;6.354;2023-08-07T04:42:49;10.99;83.20
76102;SHT30;64830;46.910;6.354;2023-08-07T04:45:14;10.97;83.12
76102;SHT30;64830;46.910;6.354;2023-08-07T04:47:40;10.99;83.09
76102;SHT30;64830;46.910;6.354;2023-08-07T04:50:06;10.99;83.08
76102;SHT30;64830;46.910;6.354;2023-08-07T04:52:32;11.00;83.06
76102;SHT30;64830;46.910;6.354;2023-08-07T04:54:57;10.99;83.00
76102;SHT30;64830;46.910;6.354;2023-08-07T04:57:23;11.01;82.97
76102;SHT30;64830;46.910;6.354;2023-08-07T04:59:48;11.01;83.07
76102;SHT30;64830;46.910;6.354;2023-08-07T05:02:13;11.03;83.11
76102;SHT30;64830;46.910;6.354;2023-08-07T05:04:39;11.04;83.02
76102;SHT30;64830;46.910;6.354;2023-08-07T05:07:05;11.04;82.95
76102;SHT30;64830;46.910;6.354;2023-08-07T05:09:30;11.01;82.93
76102;SHT30;64830;46.910;6.354;2023-08-07T05:11:56;11.03;82.97
76102;SHT30;64830;46.910;6.354;2023-08-07T05:14:21;11.04;82.86
76102;SHT30;64830;46.910;6.354;2023-08-07T05:16:48;11.03;82.65
76102;SHT30;64830;46.910;6.354;2023-08-07T05:19:13;10.99;82.86
76102;SHT30;64830;46.910;6.354;2023-08-07T05:21:39;11.00;82.99
76102;SHT30;64830;46.910;6.354;2023-08-07T05:24:04;11.03;83.02
76102;SHT30;64830;46.910;6.354;2023-08-07T05:26:30;11.03;82.81
76102;SHT30;64830;46.910;6.354;2023-08-07T05:28:56;11.06;82.79
76102;SHT30;64830;46.910;6.354;2023-08-07T05:31:24;11.08;82.70
76102;SHT30;64830;46.910;6.354;2023-08-07T05:33:50;11.11;82.84
76102;SHT30;64830;46.910;6.354;2023-08-07T05:36:15;11.11;82.84
76102;SHT30;64830;46.910;6.354;2023-08-07T05:38:40;11.17;82.94
76102;SHT30;64830;46.910;6.354;2023-08-07T05:41:06;11.19;82.87
76102;SHT30;64830;46.910;6.354;2023-08-07T05:43:32;11.25;82.69
76102;SHT30;64830;46.910;6.354;2023-08-07T05:45:57;11.28;82.66
76102;SHT30;64830;46.910;6.354;2023-08-07T05:48:22;11.32;82.70
76102;SHT30;64830;46.910;6.354;2023-08-07T05:50:48;11.36;82.48
76102;SHT30;64830;46.910;6.354;2023-08-07T05:53:13;11.39;82.72
76102;SHT30;64830;46.910;6.354;2023-08-07T05:55:39;11.43;82.48
76102;SHT30;64830;46.910;6.354;2023-08-07T05:58:06;11.52;82.33
76102;SHT30;64830;46.910;6.354;2023-08-07T06:00:32;11.55;82.65
76102;SHT30;64830;46.910;6.354;2023-08-07T06:02:57;11.59;82.02
76102;SHT30;64830;46.910;6.354;2023-08-07T06:05:23;11.61;82.21
76102;SHT30;64830;46.910;6.354;2023-08-07T06:07:49;11.67;82.62
76102;SHT30;64830;46.910;6.354;2023-08-07T06:10:15;11.74;82.48
76102;SHT30;64830;46.910;6.354;2023-08-07T06:12:40;11.84;82.26
76102;SHT30;64830;46.910;6.354;2023-08-07T06:15:06;11.90;82.11
76102;SHT30;64830;46.910;6.354;2023-08-07T06:17:31;11.94;81.71
76102;SHT30;64830;46.910;6.354;2023-08-07T06:19:57;12.01;81.29
76102;SHT30;64830;46.910;6.354;2023-08-07T06:22:22;12.05;81.54
76102;SHT30;64830;46.910;6.354;2023-08-07T06:24:47;12.10;81.34
76102;SHT30;64830;46.910;6.354;2023-08-07T06:27:14;12.17;80.42
76102;SHT30;64830;46.910;6.354;2023-08-07T06:29:39;12.24;80.97
76102;SHT30;64830;46.910;6.354;2023-08-07T06:32:05;12.29;80.53
76102;SHT30;64830;46.910;6.354;2023-08-07T06:34:31;12.36;80.54
76102;SHT30;64830;46.910;6.354;2023-08-07T06:36:56;12.46;79.95
76102;SHT30;64830;46.910;6.354;2023-08-07T06:39:22;12.55;80.43
76102;SHT30;64830;46.910;6.354;2023-08-07T06:41:47;12.62;80.59
76102;SHT30;64830;46.910;6.354;2023-08-07T06:44:12;12.64;79.38
76102;SHT30;64830;46.910;6.354;2023-08-07T06:46:38;12.66;78.82
76102;SHT30;64830;46.910;6.354;2023-08-07T06:49:03;12.70;79.01
76102;SHT30;64830;46.910;6.354;2023-08-07T06:51:28;12.79;78.93
76102;SHT30;64830;46.910;6.354;2023-08-07T06:53:54;12.86;78.99
76102;SHT30;64830;46.910;6.354;2023-08-07T06:56:19;13.03;78.52
76102;SHT30;64830;46.910;6.354;2023-08-07T06:58:45;13.14;78.03
76102;SHT30;64830;46.910;6.354;2023-08-07T07:01:11;13.15;77.52
76102;SHT30;64830;46.910;6.354;2023-08-07T07:03:36;13.16;77.56
76102;SHT30;64830;46.910;6.354;2023-08-07T07:06:01;13.18;78.04
76102;SHT30;64830;46.910;6.354;2023-08-07T07:08:27;13.19;77.09
76102;SHT30;64830;46.910;6.354;2023-08-07T07:10:52;13.16;76.29
76102;SHT30;64830;46.910;6.354;2023-08-07T07:13:18;13.08;76.79
76102;SHT30;64830;46.910;6.354;2023-08-07T07:15:43;13.05;77.73
76102;SHT30;64830;46.910;6.354;2023-08-07T07:18:08;13.08;77.35
76102;SHT30;64830;46.910;6.354;2023-08-07T07:20:34;13.11;77.15
76102;SHT30;64830;46.910;6.354;2023-08-07T07:22:59;13.15;77.81
76102;SHT30;64830;46.910;6.354;2023-08-07T07:25:25;13.16;76.84
76102;SHT30;64830;46.910;6.354;2023-08-07T07:27:50;13.15;76.95
76102;SHT30;64830;46.910;6.354;2023-08-07T07:30:15;13.16;76.98
76102;SHT30;64830;46.910;6.354;2023-08-07T07:32:41;13.24;76.72
76102;SHT30;64830;46.910;6.354;2023-08-07T07:35:06;13.31;77.05
76102;SHT30;64830;46.910;6.354;2023-08-07T07:37:32;13.36;76.18
76102;SHT30;64830;46.910;6.354;2023-08-07T07:39:57;13.34;75.63
76102;SHT30;64830;46.910;6.354;2023-08-07T07:42:23;13.32;76.26
76102;SHT30;64830;46.910;6.354;2023-08-07T07:44:48;13.32;76.66
76102;SHT30;64830;46.910;6.354;2023-08-07T07:47:14;13.29;75.01
76102;SHT30;64830;46.910;6.354;2023-08-07T07:49:43;13.26;75.97
76102;SHT30;64830;46.910;6.354;2023-08-07T07:52:09;13.31;76.09
76102;SHT30;64830;46.910;6.354;2023-08-07T07:54:35;13.36;76.87
76102;SHT30;64830;46.910;6.354;2023-08-07T07:57:00;13.43;75.58
76102;SHT30;64830;46.910;6.354;2023-08-07T07:59:25;13.45;75.48
76102;SHT30;64830;46.910;6.354;2023-08-07T08:01:51;13.50;75.02
76102;SHT30;64830;46.910;6.354;2023-08-07T08:04:16;13.53;75.05
76102;SHT30;64830;46.910;6.354;2023-08-07T08:06:41;13.59;75.70
76102;SHT30;64830;46.910;6.354;2023-08-07T08:09:07;13.66;75.74
76102;SHT30;64830;46.910;6.354;2023-08-07T08:11:34;13.71;74.62
76102;SHT30;64830;46.910;6.354;2023-08-07T08:14:00;13.73;75.09
76102;SHT30;64830;46.910;6.354;2023-08-07T08:16:25;13.77;73.47
76102;SHT30;64830;46.910;6.354;2023-08-07T08:18:51;13.81;73.90
76102;SHT30;64830;46.910;6.354;2023-08-07T08:21:16;13.88;73.72
76102;SHT30;64830;46.910;6.354;2023-08-07T08:23:41;14.01;74.80
76102;SHT30;64830;46.910;6.354;2023-08-07T08:26:07;14.11;69.78
76102;SHT30;64830;46.910;6.354;2023-08-07T08:28:32;14.11;71.18
76102;SHT30;64830;46.910;6.354;2023-08-07T08:30:58;14.18;71.85
76102;SHT30;64830;46.910;6.354;2023-08-07T08:33:23;14.29;72.35
76102;SHT30;64830;46.910;6.354;2023-08-07T08:35:48;14.43;71.09
76102;SHT30;64830;46.910;6.354;2023-08-07T08:38:14;14.52;70.92
76102;SHT30;64830;46.910;6.354;2023-08-07T08:40:42;14.50;68.78
76102;SHT30;64830;46.910;6.354;2023-08-07T08:43:08;14.43;69.29
76102;SHT30;64830;46.910;6.354;2023-08-07T08:45:36;14.39;69.51
76102;SHT30;64830;46.910;6.354;2023-08-07T08:48:03;14.39;71.46
76102;SHT30;64830;46.910;6.354;2023-08-07T08:50:29;14.43;71.04
76102;SHT30;64830;46.910;6.354;2023-08-07T08:52:56;14.42;70.56
76102;SHT30;64830;46.910;6.354;2023-08-07T08:55:22;14.39;69.37
76102;SHT30;64830;46.910;6.354;2023-08-07T08:57:48;14.32;69.45
76102;SHT30;64830;46.910;6.354;2023-08-07T09:00:15;14.29;70.07
76102;SHT30;64830;46.910;6.354;2023-08-07T09:02:47;14.28;67.45
76102;SHT30;64830;46.910;6.354;2023-08-07T09:05:14;14.26;69.27
76102;SHT30;64830;46.910;6.354;2023-08-07T09:07:40;14.31;69.89
76102;SHT30;64830;46.910;6.354;2023-08-07T09:10:06;14.24;68.10
76102;SHT30;64830;46.910;6.354;2023-08-07T09:12:33;14.22;68.44
76102;SHT30;64830;46.910;6.354;2023-08-07T09:15:02;14.24;68.14
76102;SHT30;64830;46.910;6.354;2023-08-07T09:17:32;14.29;68.15
76102;SHT30;64830;46.910;6.354;2023-08-07T09:19:59;14.50;68.27
76102;SHT30;64830;46.910;6.354;2023-08-07T09:22:25;14.70;67.80
76102;SHT30;64830;46.910;6.354;2023-08-07T09:24:52;14.90;66.91
76102;SHT30;64830;46.910;6.354;2023-08-07T09:27:18;15.02;66.11
76102;SHT30;64830;46.910;6.354;2023-08-07T09:29:44;15.02;65.33
76102;SHT30;64830;46.910;6.354;2023-08-07T09:32:12;15.08;66.62
76102;SHT30;64830;46.910;6.354;2023-08-07T09:34:41;15.11;66.21
76102;SHT30;64830;46.910;6.354;2023-08-07T09:37:08;15.07;66.30
76102;SHT30;64830;46.910;6.354;2023-08-07T09:39:35;15.02;67.12
76102;SHT30;64830;46.910;6.354;2023-08-07T09:42:01;15.00;67.27
76102;SHT30;64830;46.910;6.354;2023-08-07T09:44:35;14.93;66.10
76102;SHT30;64830;46.910;6.354;2023-08-07T09:47:11;14.88;64.97
76102;SHT30;64830;46.910;6.354;2023-08-07T09:49:37;14.85;64.10
76102;SHT30;64830;46.910;6.354;2023-08-07T09:52:05;14.83;66.43
76102;SHT30;64830;46.910;6.354;2023-08-07T09:54:33;15.00;66.52
76102;SHT30;64830;46.910;6.354;2023-08-07T09:57:01;15.22;66.26
76102;SHT30;64830;46.910;6.354;2023-08-07T09:59:27;15.43;65.33
76102;SHT30;64830;46.910;6.354;2023-08-07T10:01:54;15.52;64.02
76102;SHT30;64830;46.910;6.354;2023-08-07T10:04:21;15.46;63.90
76102;SHT30;64830;46.910;6.354;2023-08-07T10:06:47;15.43;64.34
76102;SHT30;64830;46.910;6.354;2023-08-07T10:09:13;15.40;64.66
76102;SHT30;64830;46.910;6.354;2023-08-07T10:11:39;15.55;65.90
76102;SHT30;64830;46.910;6.354;2023-08-07T10:14:08;15.83;65.41
76102;SHT30;64830;46.910;6.354;2023-08-07T10:16:34;16.00;64.53
76102;SHT30;64830;46.910;6.354;2023-08-07T10:19:05;16.12;61.32
76102;SHT30;64830;46.910;6.354;2023-08-07T10:21:36;16.12;62.22
76102;SHT30;64830;46.910;6.354;2023-08-07T10:24:04;16.12;61.25
76102;SHT30;64830;46.910;6.354;2023-08-07T10:26:30;16.11;61.62
76102;SHT30;64830;46.910;6.354;2023-08-07T10:28:59;16.08;60.88
76102;SHT30;64830;46.910;6.354;2023-08-07T10:31:26;16.09;60.36
76102;SHT30;64830;46.910;6.354;2023-08-07T10:33:52;16.08;62.26
76102;SHT30;64830;46.910;6.354;2023-08-07T10:36:18;16.14;61.23
76102;SHT30;64830;46.910;6.354;2023-08-07T10:38:47;16.05;60.63
76102;SHT30;64830;46.910;6.354;2023-08-07T10:41:14;15.97;60.86
76102;SHT30;64830;46.910;6.354;2023-08-07T10:43:44;15.90;61.42
76102;SHT30;64830;46.910;6.354;2023-08-07T10:46:15;15.89;62.01
76102;SHT30;64830;46.910;6.354;2023-08-07T10:48:48;15.94;62.08
76102;SHT30;64830;46.910;6.354;2023-08-07T10:51:19;16.17;62.23
76102;SHT30;64830;46.910;6.354;2023-08-07T10:53:47;16.43;61.69
76102;SHT30;64830;46.910;6.354;2023-08-07T10:56:18;16.62;60.51
76102;SHT30;64830;46.910;6.354;2023-08-07T10:58:54;16.74;60.30
76102;SHT30;64830;46.910;6.354;2023-08-07T11:03:49;16.94;57.47
76102;SHT30;64830;46.910;6.354;2023-08-07T11:06:17;17.03;57.17
76102;SHT30;64830;46.910;6.354;2023-08-07T11:08:43;17.08;57.90
76102;SHT30;64830;46.910;6.354;2023-08-07T11:11:09;17.12;58.27
76102;SHT30;64830;46.910;6.354;2023-08-07T11:13:34;17.05;56.57
76102;SHT30;64830;46.910;6.354;2023-08-07T11:16:02;16.92;56.61
76102;SHT30;64830;46.910;6.354;2023-08-07T11:18:28;16.80;56.78
76102;SHT30;64830;46.910;6.354;2023-08-07T11:20:54;16.69;58.22
76102;SHT30;64830;46.910;6.354;2023-08-07T11:23:28;16.70;58.75
76102;SHT30;64830;46.910;6.354;2023-08-07T11:25:54;16.77;59.22
76102;SHT30;64830;46.910;6.354;2023-08-07T11:28:20;16.69;58.19
76102;SHT30;64830;46.910;6.354;2023-08-07T11:30:52;16.60;59.48
76102;SHT30;64830;46.910;6.354;2023-08-07T11:33:19;16.77;59.48
76102;SHT30;64830;46.910;6.354;2023-08-07T11:35:45;16.90;60.13
76102;SHT30;64830;46.910;6.354;2023-08-07T11:38:11;16.94;59.59
76102;SHT30;64830;46.910;6.354;2023-08-07T11:40:37;16.98;59.16
76102;SHT30;64830;46.910;6.354;2023-08-07T11:43:03;17.01;57.78
76102;SHT30;64830;46.910;6.354;2023-08-07T11:45:28;16.98;57.76
76102;SHT30;64830;46.910;6.354;2023-08-07T11:47:55;16.94;58.15
76102;SHT30;64830;46.910;6.354;2023-08-07T11:50:22;16.85;58.63
76102;SHT30;64830;46.910;6.354;2023-08-07T11:52:48;16.76;59.30
76102;SHT30;64830;46.910;6.354;2023-08-07T11:55:17;16.77;60.27
76102;SHT30;64830;46.910;6.354;2023-08-07T11:57:46;17.00;58.11
76102;SHT30;64830;46.910;6.354;2023-08-07T12:00:11;17.19;58.62
76102;SHT30;64830;46.910;6.354;2023-08-07T12:02:44;17.28;56.66
76102;SHT30;64830;46.910;6.354;2023-08-07T12:05:10;17.42;56.18
76102;SHT30;64830;46.910;6.354;2023-08-07T12:07:37;17.50;56.59
76102;SHT30;64830;46.910;6.354;2023-08-07T12:10:11;17.57;56.15
76102;SHT30;64830;46.910;6.354;2023-08-07T12:12:37;17.53;55.69
76102;SHT30;64830;46.910;6.354;2023-08-07T12:15:06;17.56;55.14
76102;SHT30;64830;46.910;6.354;2023-08-07T12:17:32;17.60;54.08
76102;SHT30;64830;46.910;6.354;2023-08-07T12:19:58;17.71;55.68
76102;SHT30;64830;46.910;6.354;2023-08-07T12:22:27;17.73;55.32
76102;SHT30;64830;46.910;6.354;2023-08-07T12:24:52;17.74;53.97
76102;SHT30;64830;46.910;6.354;2023-08-07T12:27:19;17.73;55.02
76102;SHT30;64830;46.910;6.354;2023-08-07T12:29:44;17.73;56.14
76102;SHT30;64830;46.910;6.354;2023-08-07T12:32:10;17.71;55.99
76102;SHT30;64830;46.910;6.354;2023-08-07T12:34:35;17.60;53.34
76102;SHT30;64830;46.910;6.354;2023-08-07T12:37:01;17.42;54.02
76102;SHT30;64830;46.910;6.354;2023-08-07T12:39:27;17.45;55.06
76102;SHT30;64830;46.910;6.354;2023-08-07T12:41:52;17.39;54.88
76102;SHT30;64830;46.910;6.354;2023-08-07T12:44:17;17.40;55.20
76102;SHT30;64830;46.910;6.354;2023-08-07T12:46:43;17.57;54.80
76102;SHT30;64830;46.910;6.354;2023-08-07T12:49:09;17.79;54.17
76102;SHT30;64830;46.910;6.354;2023-08-07T12:51:34;17.93;54.13
76102;SHT30;64830;46.910;6.354;2023-08-07T12:54:00;18.09;53.56
76102;SHT30;64830;46.910;6.354;2023-08-07T12:56:25;18.16;54.07
76102;SHT30;64830;46.910;6.354;2023-08-07T12:58:51;18.12;53.57
76102;SHT30;64830;46.910;6.354;2023-08-07T13:01:16;18.14;53.51
76102;SHT30;64830;46.910;6.354;2023-08-07T13:03:41;18.04;53.46
76102;SHT30;64830;46.910;6.354;2023-08-07T13:06:07;17.91;53.80
76102;SHT30;64830;46.910;6.354;2023-08-07T13:08:34;17.97;54.42
76102;SHT30;64830;46.910;6.354;2023-08-07T13:11:01;18.14;54.75
76102;SHT30;64830;46.910;6.354;2023-08-07T13:13:26;18.31;53.52
76102;SHT30;64830;46.910;6.354;2023-08-07T13:15:53;18.39;51.57
76102;SHT30;64830;46.910;6.354;2023-08-07T13:18:19;18.45;49.38
76102;SHT30;64830;46.910;6.354;2023-08-07T13:20:45;18.50;48.87
76102;SHT30;64830;46.910;6.354;2023-08-07T13:23:11;18.49;50.87
76102;SHT30;64830;46.910;6.354;2023-08-07T13:25:37;18.56;50.74
76102;SHT30;64830;46.910;6.354;2023-08-07T13:28:03;18.56;50.26
76102;SHT30;64830;46.910;6.354;2023-08-07T13:30:32;18.56;52.53
76102;SHT30;64830;46.910;6.354;2023-08-07T13:32:57;18.60;50.41
76102;SHT30;64830;46.910;6.354;2023-08-07T13:35:23;18.49;51.16
76102;SHT30;64830;46.910;6.354;2023-08-07T13:37:48;18.38;52.55
76102;SHT30;64830;46.910;6.354;2023-08-07T13:40:13;18.41;52.55
76102;SHT30;64830;46.910;6.354;2023-08-07T13:42:39;18.39;51.76
76102;SHT30;64830;46.910;6.354;2023-08-07T13:45:05;18.31;53.72
76102;SHT30;64830;46.910;6.354;2023-08-07T13:47:30;18.33;53.55
76102;SHT30;64830;46.910;6.354;2023-08-07T13:49:56;18.36;53.80
76102;SHT30;64830;46.910;6.354;2023-08-07T13:52:23;18.42;53.15
76102;SHT30;64830;46.910;6.354;2023-08-07T13:54:49;18.48;53.63
76102;SHT30;64830;46.910;6.354;2023-08-07T13:57:15;18.69;55.29
76102;SHT30;64830;46.910;6.354;2023-08-07T13:59:41;18.84;53.77
76102;SHT30;64830;46.910;6.354;2023-08-07T14:02:06;18.80;52.55
76102;SHT30;64830;46.910;6.354;2023-08-07T14:04:32;18.67;52.57
76102;SHT30;64830;46.910;6.354;2023-08-07T14:06:58;18.76;52.45
76102;SHT30;64830;46.910;6.354;2023-08-07T14:09:24;18.88;55.25
76102;SHT30;64830;46.910;6.354;2023-08-07T14:11:50;19.03;53.06
76102;SHT30;64830;46.910;6.354;2023-08-07T14:14:15;19.08;52.80
76102;SHT30;64830;46.910;6.354;2023-08-07T14:16:41;19.16;52.71
76102;SHT30;64830;46.910;6.354;2023-08-07T14:19:07;19.28;52.38
76102;SHT30;64830;46.910;6.354;2023-08-07T14:21:32;19.23;51.92
76102;SHT30;64830;46.910;6.354;2023-08-07T14:23:58;19.29;50.43
76102;SHT30;64830;46.910;6.354;2023-08-07T14:26:23;19.21;51.63
76102;SHT30;64830;46.910;6.354;2023-08-07T14:28:49;19.19;51.49
76102;SHT30;64830;46.910;6.354;2023-08-07T14:31:14;19.08;51.47
76102;SHT30;64830;46.910;6.354;2023-08-07T14:33:39;19.00;51.69
76102;SHT30;64830;46.910;6.354;2023-08-07T14:36:05;19.00;52.91
76102;SHT30;64830;46.910;6.354;2023-08-07T14:38:30;19.00;52.10
76102;SHT30;64830;46.910;6.354;2023-08-07T14:40:56;19.11;51.32
76102;SHT30;64830;46.910;6.354;2023-08-07T14:43:24;19.05;50.93
76102;SHT30;64830;46.910;6.354;2023-08-07T14:45:49;19.11;51.95
76102;SHT30;64830;46.910;6.354;2023-08-07T14:48:15;19.19;51.34
76102;SHT30;64830;46.910;6.354;2023-08-07T14:50:41;19.23;49.49
76102;SHT30;64830;46.910;6.354;2023-08-07T14:53:06;19.25;49.74
76102;SHT30;64830;46.910;6.354;2023-08-07T14:55:32;19.28;49.90
76102;SHT30;64830;46.910;6.354;2023-08-07T14:57:57;19.25;49.43
76102;SHT30;64830;46.910;6.354;2023-08-07T15:00:23;19.19;50.59
76102;SHT30;64830;46.910;6.354;2023-08-07T15:02:48;19.14;48.29
76102;SHT30;64830;46.910;6.354;2023-08-07T15:05:14;19.08;46.92
76102;SHT30;64830;46.910;6.354;2023-08-07T15:07:39;19.03;48.05
76102;SHT30;64830;46.910;6.354;2023-08-07T15:10:05;19.03;47.56
76102;SHT30;64830;46.910;6.354;2023-08-07T15:12:31;19.08;47.93
76102;SHT30;64830;46.910;6.354;2023-08-07T15:14:56;19.14;47.17
76102;SHT30;64830;46.910;6.354;2023-08-07T15:17:21;19.14;47.01
76102;SHT30;64830;46.910;6.354;2023-08-07T15:19:47;19.19;45.57
76102;SHT30;64830;46.910;6.354;2023-08-07T15:22:12;19.16;45.03
76102;SHT30;64830;46.910;6.354;2023-08-07T15:24:37;19.12;44.33
76102;SHT30;64830;46.910;6.354;2023-08-07T15:27:03;19.19;46.83
76102;SHT30;64830;46.910;6.354;2023-08-07T15:29:28;19.28;46.86
76102;SHT30;64830;46.910;6.354;2023-08-07T15:31:54;19.29;46.55